Airfield :
LOGIN :

Register | Disclaimer

   EN    FR    IT 

 










Legend :    VFR   Marginal VFR   IFR   Intensive IFR   Very Intensive IFR
Visi :
Ceiling :
>= 8 km
>= 3000ft
5 to 8 km
1000 to 3000 ft
1500m to 5 km
500 to 1000 ft
800 to 1500m
200 to 500 ft
< 800m
< 200 ft
Symbols :   Thunderstorms  Fog  Heavy snow  Heavy precipitations  Wind > 20 kt
SIGMETs :     Misc.  Thunderstorms  Icing  Turbulence  Mountain Waves  Volcanic Ashes







- Airport Elevation : 143 ft


LGEL - Elefsis

CURRENT METAR :
  • 161350Z 35009KT 9999 SCT025 23/13 Q1019

EXPIRED METARs :
  • 161320Z 34009KT 9999 SCT025 23/13 Q1019
  • 161250Z 33008KT 9999 SCT025 24/13 Q1019
  • 161220Z 34009KT 9999 SCT025 24/14 Q1019
  • 161150Z 34008KT 9999 SCT025 24/14 Q1020
  • 161120Z 34008KT 9999 SCT025 23/13 Q1020

TAF TAF LGEL
Valid from the 16 at 12:00 until the 17 at 12:00 UTC


161100Z 1612/1712 34012KT 9999 SCT025
No reported NOTAMs for that airfield.



MET'MAP, your aeronautical weather chart ! - Copyright ORBIFLY December 2007 - Disclaimer

ORBIFLY MET'MAP TEAM :

Programming & Development : Alexandra Zaïnal
Concept & Development : Baudouin d'Aumeries
Co-Development & Prog : Marc-Olivier Méhu
Technical & hardware support : Manuel Goepfert

Contact : metmap@orbifly.com




SOURCES & CREDITS :

   NOAA